createdAt,value
2023-10-26T00:01:01.000Z,0
2023-10-26T00:02:05.000Z,0
2023-10-26T00:03:09.000Z,0
2023-10-26T00:04:20.000Z,0
2023-10-26T00:05:25.000Z,0
2023-10-26T00:06:36.000Z,0
2023-10-26T00:07:40.000Z,0
2023-10-26T00:08:44.000Z,0
2023-10-26T00:09:48.000Z,0
2023-10-26T00:10:53.000Z,0
2023-10-26T00:11:57.000Z,0
2023-10-26T00:13:08.000Z,0
2023-10-26T00:14:20.000Z,0
2023-10-26T00:15:24.000Z,0
2023-10-26T00:16:28.000Z,0
2023-10-26T00:17:39.000Z,0
2023-10-26T00:18:43.000Z,0
2023-10-26T00:19:47.000Z,0
2023-10-26T00:20:52.000Z,0
2023-10-26T00:21:56.000Z,0
2023-10-26T00:23:00.000Z,0
2023-10-26T00:24:04.000Z,0
2023-10-26T00:25:08.000Z,0
2023-10-26T00:26:12.000Z,0
2023-10-26T00:27:17.000Z,0
2023-10-26T00:28:21.000Z,0
2023-10-26T00:29:25.000Z,0
2023-10-26T00:30:29.000Z,0
2023-10-26T00:31:33.000Z,0
2023-10-26T00:32:37.000Z,0
2023-10-26T00:33:41.000Z,0
2023-10-26T00:34:46.000Z,0
2023-10-26T00:35:50.000Z,0
2023-10-26T00:36:54.000Z,0
2023-10-26T00:37:58.000Z,0
2023-10-26T00:39:02.000Z,0
2023-10-26T00:40:06.000Z,0
2023-10-26T00:41:10.000Z,0
2023-10-26T00:42:18.000Z,0
2023-10-26T00:43:22.000Z,0
2023-10-26T00:44:26.000Z,0
2023-10-26T00:45:30.000Z,0
2023-10-26T00:46:34.000Z,0
2023-10-26T00:47:38.000Z,0
2023-10-26T00:48:42.000Z,0
2023-10-26T00:49:47.000Z,0
2023-10-26T00:50:58.000Z,0
2023-10-26T00:52:02.000Z,0
2023-10-26T00:53:06.000Z,0
2023-10-26T00:54:14.000Z,0
2023-10-26T00:55:18.000Z,0
2023-10-26T00:56:22.000Z,0
2023-10-26T00:57:26.000Z,0
2023-10-26T00:58:37.000Z,0
2023-10-26T00:59:41.000Z,0
2023-10-26T01:00:46.000Z,0
2023-10-26T01:01:50.000Z,0
2023-10-26T01:02:54.000Z,0
2023-10-26T01:03:58.000Z,0
2023-10-26T01:05:02.000Z,0
2023-10-26T01:06:07.000Z,0
2023-10-26T01:07:11.000Z,0
2023-10-26T01:08:15.000Z,0
2023-10-26T01:09:19.000Z,0
2023-10-26T01:10:23.000Z,0
2023-10-26T01:11:35.000Z,0
2023-10-26T01:12:39.000Z,0
2023-10-26T01:13:43.000Z,0
2023-10-26T01:14:47.000Z,0
2023-10-26T01:15:51.000Z,0
2023-10-26T01:16:56.000Z,0
2023-10-26T01:18:00.000Z,0
2023-10-26T01:19:04.000Z,0
2023-10-26T01:20:08.000Z,0
2023-10-26T01:21:15.000Z,0
2023-10-26T01:22:19.000Z,0
2023-10-26T01:23:24.000Z,0
2023-10-26T01:24:28.000Z,0
2023-10-26T01:25:32.000Z,0
2023-10-26T01:26:36.000Z,0
2023-10-26T01:27:40.000Z,0
2023-10-26T01:28:44.000Z,0
2023-10-26T01:29:48.000Z,0
2023-10-26T01:30:53.000Z,0
2023-10-26T01:31:57.000Z,0
2023-10-26T01:33:01.000Z,0
2023-10-26T01:34:08.000Z,0
2023-10-26T01:35:12.000Z,0
2023-10-26T01:36:17.000Z,0
2023-10-26T01:37:21.000Z,0
2023-10-26T01:38:25.000Z,0
2023-10-26T01:39:29.000Z,0
2023-10-26T01:40:33.000Z,0
2023-10-26T01:41:37.000Z,0
2023-10-26T01:42:41.000Z,0
2023-10-26T01:43:45.000Z,0
2023-10-26T01:44:50.000Z,0
2023-10-26T01:45:54.000Z,0
2023-10-26T01:46:58.000Z,0
2023-10-26T01:48:02.000Z,0
2023-10-26T01:49:06.000Z,0
2023-10-26T01:50:11.000Z,0
2023-10-26T01:51:15.000Z,0
2023-10-26T01:52:19.000Z,0
2023-10-26T01:53:23.000Z,0
2023-10-26T01:54:27.000Z,0
2023-10-26T01:55:31.000Z,0
2023-10-26T01:56:36.000Z,0
2023-10-26T01:57:40.000Z,0
2023-10-26T01:58:44.000Z,0
2023-10-26T01:59:48.000Z,0
2023-10-26T02:00:52.000Z,0
2023-10-26T02:01:56.000Z,0
2023-10-26T02:03:00.000Z,0
2023-10-26T02:04:05.000Z,0
2023-10-26T02:05:09.000Z,0
2023-10-26T02:06:13.000Z,0
2023-10-26T02:07:17.000Z,0
2023-10-26T02:08:21.000Z,0
2023-10-26T02:09:25.000Z,0
2023-10-26T02:10:29.000Z,0
2023-10-26T02:11:34.000Z,0
2023-10-26T02:12:38.000Z,0
2023-10-26T02:13:42.000Z,0
2023-10-26T02:14:46.000Z,0
2023-10-26T02:15:50.000Z,0
2023-10-26T02:16:54.000Z,0
2023-10-26T02:17:58.000Z,0
2023-10-26T02:19:03.000Z,0
2023-10-26T02:20:07.000Z,0
2023-10-26T02:21:11.000Z,0
2023-10-26T02:22:15.000Z,0
2023-10-26T02:23:19.000Z,0
2023-10-26T02:24:23.000Z,0
2023-10-26T02:25:28.000Z,0
2023-10-26T02:26:32.000Z,0
2023-10-26T02:27:36.000Z,0
2023-10-26T02:28:40.000Z,0
2023-10-26T02:29:44.000Z,0
2023-10-26T02:30:48.000Z,0
2023-10-26T02:31:52.000Z,0
2023-10-26T02:32:57.000Z,0
2023-10-26T02:34:01.000Z,0
2023-10-26T02:35:05.000Z,0
2023-10-26T02:36:09.000Z,0
2023-10-26T02:37:13.000Z,0
2023-10-26T02:38:17.000Z,0
2023-10-26T02:39:22.000Z,0
2023-10-26T02:40:26.000Z,0
2023-10-26T02:41:30.000Z,0
2023-10-26T02:42:34.000Z,0
2023-10-26T02:43:38.000Z,0
2023-10-26T02:44:43.000Z,0
2023-10-26T02:45:47.000Z,0
2023-10-26T02:46:51.000Z,0
2023-10-26T02:47:55.000Z,0
2023-10-26T02:48:59.000Z,0
2023-10-26T02:50:03.000Z,0
2023-10-26T02:51:08.000Z,0
2023-10-26T02:52:12.000Z,0
2023-10-26T02:53:16.000Z,0
2023-10-26T02:54:20.000Z,0
2023-10-26T02:55:24.000Z,0
2023-10-26T02:56:28.000Z,0
2023-10-26T02:57:32.000Z,0
2023-10-26T02:58:37.000Z,0
2023-10-26T02:59:41.000Z,0
2023-10-26T03:00:45.000Z,0
2023-10-26T03:01:49.000Z,0
2023-10-26T03:03:00.000Z,0
2023-10-26T03:04:05.000Z,0
2023-10-26T03:05:09.000Z,0
2023-10-26T03:06:13.000Z,0
2023-10-26T03:07:17.000Z,0
2023-10-26T03:08:21.000Z,0
2023-10-26T03:09:25.000Z,0
2023-10-26T03:10:30.000Z,0
2023-10-26T03:11:34.000Z,0
2023-10-26T03:12:38.000Z,0
2023-10-26T03:13:42.000Z,0
2023-10-26T03:14:46.000Z,0
2023-10-26T03:15:50.000Z,0
2023-10-26T03:16:54.000Z,0
2023-10-26T03:17:59.000Z,0
2023-10-26T03:19:03.000Z,0
2023-10-26T03:20:07.000Z,0
2023-10-26T03:21:11.000Z,0
2023-10-26T03:22:15.000Z,0
2023-10-26T03:23:19.000Z,0
2023-10-26T03:24:23.000Z,0
2023-10-26T03:25:35.000Z,0
2023-10-26T03:26:49.000Z,0
2023-10-26T03:27:53.000Z,0
2023-10-26T03:28:57.000Z,0
2023-10-26T03:30:01.000Z,0
2023-10-26T03:31:05.000Z,0
2023-10-26T03:32:09.000Z,0
2023-10-26T03:33:14.000Z,0
2023-10-26T03:34:18.000Z,0
2023-10-26T03:35:22.000Z,0
2023-10-26T03:36:26.000Z,0
2023-10-26T03:37:30.000Z,0
2023-10-26T03:38:34.000Z,0
2023-10-26T03:39:39.000Z,0
2023-10-26T03:40:43.000Z,0
2023-10-26T03:41:47.000Z,0
2023-10-26T03:42:51.000Z,0
2023-10-26T03:43:55.000Z,0
2023-10-26T03:44:59.000Z,0
2023-10-26T03:46:11.000Z,0
2023-10-26T03:47:15.000Z,0
2023-10-26T03:48:19.000Z,0
2023-10-26T03:49:23.000Z,0
2023-10-26T03:50:27.000Z,0
2023-10-26T03:51:31.000Z,0
2023-10-26T03:52:36.000Z,0
2023-10-26T03:53:40.000Z,0
2023-10-26T03:54:44.000Z,0
2023-10-26T03:55:48.000Z,0
2023-10-26T03:56:52.000Z,0
2023-10-26T03:57:56.000Z,0
2023-10-26T03:59:01.000Z,0
2023-10-26T04:00:05.000Z,0
2023-10-26T04:01:09.000Z,0
2023-10-26T04:02:13.000Z,0
2023-10-26T04:03:17.000Z,0
2023-10-26T04:04:22.000Z,0
2023-10-26T04:05:26.000Z,0
2023-10-26T04:06:30.000Z,0
2023-10-26T04:07:34.000Z,0
2023-10-26T04:08:38.000Z,0
2023-10-26T04:09:42.000Z,0
2023-10-26T04:10:46.000Z,0
2023-10-26T04:11:51.000Z,0
2023-10-26T04:12:55.000Z,0
2023-10-26T04:14:00.000Z,0
2023-10-26T04:15:04.000Z,0
2023-10-26T04:16:08.000Z,0
2023-10-26T04:17:12.000Z,0
2023-10-26T04:18:17.000Z,0
2023-10-26T04:19:21.000Z,0
2023-10-26T04:20:25.000Z,0
2023-10-26T04:21:29.000Z,0
2023-10-26T04:22:33.000Z,0
2023-10-26T04:23:37.000Z,0
2023-10-26T04:24:41.000Z,0
2023-10-26T04:25:46.000Z,0
2023-10-26T04:26:50.000Z,0
2023-10-26T04:27:54.000Z,0
2023-10-26T04:28:58.000Z,0
2023-10-26T04:30:02.000Z,0
2023-10-26T04:31:06.000Z,0
2023-10-26T04:32:11.000Z,0
2023-10-26T04:33:15.000Z,0
2023-10-26T04:34:19.000Z,0
2023-10-26T04:35:23.000Z,0
2023-10-26T04:36:27.000Z,0
2023-10-26T04:37:39.000Z,0
2023-10-26T04:38:43.000Z,0
2023-10-26T04:39:50.000Z,0
2023-10-26T04:40:54.000Z,0
2023-10-26T04:41:58.000Z,0
2023-10-26T04:43:03.000Z,0
2023-10-26T04:44:07.000Z,0
2023-10-26T04:45:11.000Z,0
2023-10-26T04:46:15.000Z,0
2023-10-26T04:47:19.000Z,0
2023-10-26T04:48:23.000Z,0
2023-10-26T04:49:28.000Z,0
2023-10-26T04:50:32.000Z,0
2023-10-26T04:51:36.000Z,0
2023-10-26T04:52:40.000Z,0
2023-10-26T04:53:44.000Z,0
2023-10-26T04:54:48.000Z,0
2023-10-26T04:55:53.000Z,0
2023-10-26T04:56:57.000Z,0
2023-10-26T04:58:01.000Z,0
2023-10-26T04:59:05.000Z,0
2023-10-26T05:00:09.000Z,0
2023-10-26T05:01:13.000Z,0
2023-10-26T05:02:18.000Z,0
2023-10-26T05:03:22.000Z,0
2023-10-26T05:04:26.000Z,0
2023-10-26T05:05:30.000Z,0
2023-10-26T05:06:34.000Z,0
2023-10-26T05:07:38.000Z,0
2023-10-26T05:08:42.000Z,0
2023-10-26T05:09:46.000Z,0
2023-10-26T05:10:51.000Z,0
2023-10-26T05:11:55.000Z,0
2023-10-26T05:12:59.000Z,0
2023-10-26T05:14:03.000Z,0
2023-10-26T05:15:07.000Z,0
2023-10-26T05:16:11.000Z,0
2023-10-26T05:17:15.000Z,0
2023-10-26T05:18:20.000Z,0
2023-10-26T05:19:24.000Z,0
2023-10-26T05:20:28.000Z,0
2023-10-26T05:21:32.000Z,0
2023-10-26T05:22:36.000Z,0
2023-10-26T05:23:40.000Z,0
2023-10-26T05:24:45.000Z,0
2023-10-26T05:25:49.000Z,0
2023-10-26T05:26:53.000Z,0
2023-10-26T05:27:57.000Z,0
2023-10-26T05:29:01.000Z,0
2023-10-26T05:30:05.000Z,0
2023-10-26T05:31:09.000Z,0
2023-10-26T05:32:14.000Z,0
2023-10-26T05:33:18.000Z,0
2023-10-26T05:34:22.000Z,0
2023-10-26T05:35:26.000Z,0
2023-10-26T05:36:30.000Z,0
2023-10-26T05:37:34.000Z,0
2023-10-26T05:38:39.000Z,0
2023-10-26T05:39:43.000Z,0
2023-10-26T05:40:47.000Z,0
2023-10-26T05:41:58.000Z,0
2023-10-26T05:43:02.000Z,0
2023-10-26T05:44:06.000Z,0
2023-10-26T05:45:11.000Z,0
2023-10-26T05:46:15.000Z,0
2023-10-26T05:47:19.000Z,0
2023-10-26T05:48:23.000Z,0
2023-10-26T05:49:27.000Z,0
2023-10-26T05:50:31.000Z,0
2023-10-26T05:51:36.000Z,0
2023-10-26T05:52:40.000Z,0
2023-10-26T05:53:44.000Z,0
2023-10-26T05:54:48.000Z,0
2023-10-26T05:55:52.000Z,0
2023-10-26T05:56:57.000Z,0
2023-10-26T05:58:01.000Z,0
2023-10-26T05:59:05.000Z,0
2023-10-26T06:00:09.000Z,0
2023-10-26T06:01:13.000Z,1
2023-10-26T06:02:17.000Z,1
2023-10-26T06:03:21.000Z,1
2023-10-26T06:04:25.000Z,1
2023-10-26T06:05:30.000Z,1
2023-10-26T06:06:34.000Z,1
2023-10-26T06:07:38.000Z,2
2023-10-26T06:08:42.000Z,2
2023-10-26T06:09:46.000Z,2
2023-10-26T06:10:50.000Z,2
2023-10-26T06:11:54.000Z,3
2023-10-26T06:12:59.000Z,4
2023-10-26T06:14:03.000Z,4
2023-10-26T06:15:07.000Z,5
2023-10-26T06:16:11.000Z,5
2023-10-26T06:17:15.000Z,5
2023-10-26T06:18:19.000Z,4
2023-10-26T06:19:23.000Z,5
2023-10-26T06:20:28.000Z,5
2023-10-26T06:21:32.000Z,5
2023-10-26T06:22:43.000Z,5
2023-10-26T06:23:47.000Z,5
2023-10-26T06:24:51.000Z,5
2023-10-26T06:25:57.000Z,6
2023-10-26T06:27:01.000Z,6
2023-10-26T06:28:05.000Z,6
2023-10-26T06:29:09.000Z,6
2023-10-26T06:30:13.000Z,7
2023-10-26T06:31:18.000Z,7
2023-10-26T06:32:22.000Z,6
2023-10-26T06:33:26.000Z,7
2023-10-26T06:34:30.000Z,8
2023-10-26T06:35:34.000Z,8
2023-10-26T06:36:38.000Z,9
2023-10-26T06:37:42.000Z,10
2023-10-26T06:38:47.000Z,10
2023-10-26T06:39:51.000Z,11
2023-10-26T06:40:55.000Z,13
2023-10-26T06:41:59.000Z,13
2023-10-26T06:43:03.000Z,14
2023-10-26T06:44:07.000Z,14
2023-10-26T06:45:11.000Z,14
2023-10-26T06:46:16.000Z,15
2023-10-26T06:47:20.000Z,13
2023-10-26T06:48:34.000Z,14
2023-10-26T06:49:38.000Z,14
2023-10-26T06:50:42.000Z,14
2023-10-26T06:51:46.000Z,16
2023-10-26T06:52:50.000Z,13
2023-10-26T06:53:55.000Z,13
2023-10-26T06:54:59.000Z,11
2023-10-26T06:56:03.000Z,11
2023-10-26T06:57:07.000Z,9
2023-10-26T06:58:11.000Z,9
2023-10-26T06:59:15.000Z,9
2023-10-26T07:00:19.000Z,10
2023-10-26T07:01:24.000Z,8
2023-10-26T07:02:28.000Z,8
2023-10-26T07:03:32.000Z,7
2023-10-26T07:04:36.000Z,8
2023-10-26T07:05:40.000Z,10
2023-10-26T07:06:44.000Z,10
2023-10-26T07:07:49.000Z,14
2023-10-26T07:08:53.000Z,18
2023-10-26T07:09:57.000Z,19
2023-10-26T07:11:01.000Z,18
2023-10-26T07:12:05.000Z,20
2023-10-26T07:13:11.000Z,20
2023-10-26T07:14:15.000Z,19
2023-10-26T07:15:19.000Z,20
2023-10-26T07:16:23.000Z,20
2023-10-26T07:17:27.000Z,20
2023-10-26T07:18:31.000Z,21
2023-10-26T07:19:35.000Z,20
2023-10-26T07:20:40.000Z,19
2023-10-26T07:21:44.000Z,17
2023-10-26T07:22:48.000Z,19
2023-10-26T07:23:52.000Z,17
2023-10-26T07:24:56.000Z,18
2023-10-26T07:26:00.000Z,16
2023-10-26T07:27:05.000Z,18
2023-10-26T07:28:09.000Z,21
2023-10-26T07:29:13.000Z,23
2023-10-26T07:30:17.000Z,22
2023-10-26T07:31:29.000Z,22
2023-10-26T07:32:33.000Z,21
2023-10-26T07:33:37.000Z,21
2023-10-26T07:34:41.000Z,20
2023-10-26T07:35:45.000Z,21
2023-10-26T07:36:49.000Z,20
2023-10-26T07:37:53.000Z,21
2023-10-26T07:38:58.000Z,21
2023-10-26T07:40:02.000Z,25
2023-10-26T07:41:08.000Z,27
2023-10-26T07:42:12.000Z,31
2023-10-26T07:43:16.000Z,33
2023-10-26T07:44:20.000Z,37
2023-10-26T07:45:25.000Z,41
2023-10-26T07:46:29.000Z,45
2023-10-26T07:47:33.000Z,48
2023-10-26T07:48:37.000Z,49
2023-10-26T07:49:41.000Z,56
2023-10-26T07:50:45.000Z,56
2023-10-26T07:51:49.000Z,53
2023-10-26T07:52:54.000Z,53
2023-10-26T07:53:58.000Z,51
2023-10-26T07:55:05.000Z,50
2023-10-26T07:56:09.000Z,47
2023-10-26T07:57:23.000Z,39
2023-10-26T07:58:27.000Z,43
2023-10-26T07:59:32.000Z,47
2023-10-26T08:00:36.000Z,53
2023-10-26T08:01:40.000Z,59
2023-10-26T08:02:44.000Z,64
2023-10-26T08:03:55.000Z,68
2023-10-26T08:05:00.000Z,71
2023-10-26T08:06:05.000Z,73
2023-10-26T08:07:09.000Z,76
2023-10-26T08:08:13.000Z,82
2023-10-26T08:09:17.000Z,92
2023-10-26T08:10:21.000Z,99
2023-10-26T08:11:26.000Z,100
2023-10-26T08:12:30.000Z,99
2023-10-26T08:13:34.000Z,101
2023-10-26T08:14:38.000Z,93
2023-10-26T08:15:42.000Z,83
2023-10-26T08:16:46.000Z,89
2023-10-26T08:17:50.000Z,85
2023-10-26T08:18:54.000Z,77
2023-10-26T08:19:59.000Z,73
2023-10-26T08:21:03.000Z,69
2023-10-26T08:22:07.000Z,68
2023-10-26T08:23:11.000Z,62
2023-10-26T08:24:15.000Z,60
2023-10-26T08:25:19.000Z,54
2023-10-26T08:26:24.000Z,47
2023-10-26T08:27:28.000Z,42
2023-10-26T08:28:32.000Z,47
2023-10-26T08:29:36.000Z,45
2023-10-26T08:30:40.000Z,47
2023-10-26T08:31:45.000Z,46
2023-10-26T08:32:49.000Z,47
2023-10-26T08:33:53.000Z,46
2023-10-26T08:35:07.000Z,59
2023-10-26T08:36:11.000Z,67
2023-10-26T08:37:15.000Z,73
2023-10-26T08:38:19.000Z,77
2023-10-26T08:39:23.000Z,82
2023-10-26T08:40:28.000Z,81
2023-10-26T08:41:39.000Z,67
2023-10-26T08:42:43.000Z,64
2023-10-26T08:43:47.000Z,62
2023-10-26T08:44:51.000Z,52
2023-10-26T08:45:56.000Z,48
2023-10-26T08:47:00.000Z,48
2023-10-26T08:48:04.000Z,51
2023-10-26T08:49:08.000Z,52
2023-10-26T08:50:12.000Z,55
2023-10-26T08:51:16.000Z,63
2023-10-26T08:52:21.000Z,76
2023-10-26T08:53:25.000Z,96
2023-10-26T08:54:36.000Z,118
2023-10-26T08:55:40.000Z,134
2023-10-26T08:56:44.000Z,137
2023-10-26T08:57:49.000Z,140
2023-10-26T08:58:53.000Z,140
2023-10-26T08:59:57.000Z,142
2023-10-26T09:01:01.000Z,142
2023-10-26T09:02:05.000Z,141
2023-10-26T09:03:09.000Z,142
2023-10-26T09:04:13.000Z,140
2023-10-26T09:05:18.000Z,137
2023-10-26T09:06:25.000Z,136
2023-10-26T09:07:29.000Z,135
2023-10-26T09:08:33.000Z,127
2023-10-26T09:09:37.000Z,129
2023-10-26T09:10:41.000Z,132
2023-10-26T09:11:46.000Z,133
2023-10-26T09:12:50.000Z,129
2023-10-26T09:13:54.000Z,130
2023-10-26T09:14:58.000Z,135
2023-10-26T09:16:02.000Z,139
2023-10-26T09:17:06.000Z,139
2023-10-26T09:18:10.000Z,137
2023-10-26T09:19:15.000Z,137
2023-10-26T09:20:19.000Z,140
2023-10-26T09:21:23.000Z,146
2023-10-26T09:22:27.000Z,150
2023-10-26T09:23:31.000Z,155
2023-10-26T09:24:35.000Z,190
2023-10-26T09:25:40.000Z,167
2023-10-26T09:26:44.000Z,154
2023-10-26T09:27:48.000Z,152
2023-10-26T09:28:52.000Z,158
2023-10-26T09:29:56.000Z,152
2023-10-26T09:31:00.000Z,141
2023-10-26T09:32:05.000Z,143
2023-10-26T09:33:09.000Z,137
2023-10-26T09:34:13.000Z,138
2023-10-26T09:35:17.000Z,144
2023-10-26T09:36:29.000Z,143
2023-10-26T09:37:33.000Z,125
2023-10-26T09:38:37.000Z,120
2023-10-26T09:39:41.000Z,116
2023-10-26T09:40:45.000Z,112
2023-10-26T09:41:50.000Z,104
2023-10-26T09:42:55.000Z,108
2023-10-26T09:43:59.000Z,109
2023-10-26T09:45:03.000Z,108
2023-10-26T09:46:07.000Z,96
2023-10-26T09:47:11.000Z,97
2023-10-26T09:48:15.000Z,106
2023-10-26T09:49:19.000Z,122
2023-10-26T09:50:34.000Z,135
2023-10-26T09:51:38.000Z,125
2023-10-26T09:52:49.000Z,119
2023-10-26T09:54:03.000Z,124
2023-10-26T09:55:07.000Z,129
2023-10-26T09:56:12.000Z,131
2023-10-26T09:57:16.000Z,138
2023-10-26T09:58:27.000Z,136
2023-10-26T09:59:31.000Z,145
2023-10-26T10:00:35.000Z,147
2023-10-26T10:01:40.000Z,149
2023-10-26T10:02:44.000Z,148
2023-10-26T10:03:48.000Z,148
2023-10-26T10:04:52.000Z,147
2023-10-26T10:05:56.000Z,159
2023-10-26T10:07:00.000Z,174
2023-10-26T10:08:05.000Z,184
2023-10-26T10:09:09.000Z,199
2023-10-26T10:10:13.000Z,207
2023-10-26T10:11:18.000Z,210
2023-10-26T10:12:22.000Z,214
2023-10-26T10:13:26.000Z,201
2023-10-26T10:14:30.000Z,194
2023-10-26T10:15:35.000Z,184
2023-10-26T10:16:39.000Z,182
2023-10-26T10:17:43.000Z,172
2023-10-26T10:18:47.000Z,172
2023-10-26T10:19:51.000Z,172
2023-10-26T10:20:55.000Z,186
2023-10-26T10:21:59.000Z,195
2023-10-26T10:23:04.000Z,199
2023-10-26T10:24:08.000Z,193
2023-10-26T10:25:12.000Z,182
2023-10-26T10:26:19.000Z,170
2023-10-26T10:27:23.000Z,158
2023-10-26T10:28:28.000Z,150
2023-10-26T10:29:32.000Z,144
2023-10-26T10:30:36.000Z,140
2023-10-26T10:31:43.000Z,138
2023-10-26T10:32:47.000Z,142
2023-10-26T10:33:51.000Z,143
2023-10-26T10:34:56.000Z,140
2023-10-26T10:36:00.000Z,134
2023-10-26T10:37:04.000Z,127
2023-10-26T10:38:08.000Z,125
2023-10-26T10:39:12.000Z,128
2023-10-26T10:40:16.000Z,135
2023-10-26T10:41:21.000Z,145
2023-10-26T10:42:25.000Z,154
2023-10-26T10:43:29.000Z,162
2023-10-26T10:44:40.000Z,164
2023-10-26T10:45:51.000Z,160
2023-10-26T10:46:59.000Z,152
2023-10-26T10:48:06.000Z,147
2023-10-26T10:49:13.000Z,137
2023-10-26T10:50:18.000Z,120
2023-10-26T10:51:22.000Z,112
2023-10-26T10:52:29.000Z,111
2023-10-26T10:53:33.000Z,111
2023-10-26T10:54:37.000Z,109
2023-10-26T10:55:42.000Z,108
2023-10-26T10:56:46.000Z,98
2023-10-26T10:57:50.000Z,84
2023-10-26T10:58:54.000Z,72
2023-10-26T10:59:58.000Z,65
2023-10-26T11:01:02.000Z,61
2023-10-26T11:02:07.000Z,58
2023-10-26T11:03:11.000Z,53
2023-10-26T11:04:15.000Z,50
2023-10-26T11:05:19.000Z,49
2023-10-26T11:06:23.000Z,48
2023-10-26T11:07:29.000Z,45
2023-10-26T11:08:40.000Z,42
2023-10-26T11:09:44.000Z,46
2023-10-26T11:10:48.000Z,53
2023-10-26T11:11:52.000Z,57
2023-10-26T11:12:57.000Z,56
2023-10-26T11:14:01.000Z,55
2023-10-26T11:15:05.000Z,55
2023-10-26T11:16:09.000Z,53
2023-10-26T11:17:13.000Z,50
2023-10-26T11:18:17.000Z,45
2023-10-26T11:19:22.000Z,43
2023-10-26T11:20:26.000Z,42
2023-10-26T11:21:30.000Z,44
2023-10-26T11:22:34.000Z,46
2023-10-26T11:23:38.000Z,49
2023-10-26T11:24:42.000Z,51
2023-10-26T11:25:46.000Z,52
2023-10-26T11:27:01.000Z,56
2023-10-26T11:28:05.000Z,62
2023-10-26T11:29:09.000Z,69
2023-10-26T11:30:13.000Z,77
2023-10-26T11:31:17.000Z,83
2023-10-26T11:32:21.000Z,93
2023-10-26T11:33:25.000Z,106
2023-10-26T11:34:30.000Z,124
2023-10-26T11:35:34.000Z,142
2023-10-26T11:36:38.000Z,155
2023-10-26T11:37:42.000Z,160
2023-10-26T11:38:54.000Z,164
2023-10-26T11:39:58.000Z,177
2023-10-26T11:41:02.000Z,184
2023-10-26T11:42:06.000Z,173
2023-10-26T11:43:13.000Z,155
2023-10-26T11:44:17.000Z,147
2023-10-26T11:45:21.000Z,144
2023-10-26T11:46:29.000Z,151
2023-10-26T11:48:13.000Z,132
2023-10-26T11:49:17.000Z,115
2023-10-26T11:50:21.000Z,109
2023-10-26T11:51:25.000Z,103
2023-10-26T11:52:29.000Z,98
2023-10-26T11:53:34.000Z,97
2023-10-26T11:54:38.000Z,95
2023-10-26T11:55:42.000Z,95
2023-10-26T11:56:46.000Z,92
2023-10-26T11:57:50.000Z,89
2023-10-26T11:58:55.000Z,84
2023-10-26T11:59:59.000Z,72
2023-10-26T12:01:03.000Z,63
2023-10-26T12:02:14.000Z,56
2023-10-26T12:03:18.000Z,51
2023-10-26T12:04:23.000Z,44
2023-10-26T12:05:27.000Z,39
2023-10-26T12:06:31.000Z,40
2023-10-26T12:07:35.000Z,37
2023-10-26T12:08:42.000Z,32
2023-10-26T12:09:47.000Z,32
2023-10-26T12:10:52.000Z,31
2023-10-26T12:11:57.000Z,33
2023-10-26T12:13:01.000Z,34
2023-10-26T12:14:05.000Z,35
2023-10-26T12:15:09.000Z,33
2023-10-26T12:16:14.000Z,32
2023-10-26T12:17:18.000Z,33
2023-10-26T12:18:22.000Z,33
2023-10-26T12:19:26.000Z,35
2023-10-26T12:20:30.000Z,36
2023-10-26T12:21:34.000Z,36
2023-10-26T12:22:39.000Z,36
2023-10-26T12:23:47.000Z,36
2023-10-26T12:24:51.000Z,35
2023-10-26T12:25:55.000Z,37
2023-10-26T12:26:59.000Z,39
2023-10-26T12:28:03.000Z,41
2023-10-26T12:29:08.000Z,48
2023-10-26T12:30:12.000Z,58
2023-10-26T12:31:17.000Z,68
2023-10-26T12:32:28.000Z,73
2023-10-26T12:33:32.000Z,70
2023-10-26T12:34:37.000Z,75
2023-10-26T12:35:41.000Z,76
2023-10-26T12:36:45.000Z,73
2023-10-26T12:37:56.000Z,80
2023-10-26T12:39:01.000Z,88
2023-10-26T12:40:06.000Z,89
2023-10-26T12:41:10.000Z,82
2023-10-26T12:42:14.000Z,81
2023-10-26T12:43:18.000Z,85
2023-10-26T12:44:22.000Z,85
2023-10-26T12:45:26.000Z,82
2023-10-26T12:46:30.000Z,87
2023-10-26T12:47:35.000Z,92
2023-10-26T12:48:39.000Z,95
2023-10-26T12:49:43.000Z,93
2023-10-26T12:50:47.000Z,91
2023-10-26T12:51:54.000Z,88
2023-10-26T12:53:06.000Z,90
2023-10-26T12:54:10.000Z,91
2023-10-26T12:55:15.000Z,87
2023-10-26T12:56:19.000Z,80
2023-10-26T12:57:25.000Z,72
2023-10-26T12:58:29.000Z,64
2023-10-26T12:59:33.000Z,68
2023-10-26T13:00:37.000Z,66
2023-10-26T13:01:41.000Z,62
2023-10-26T13:02:45.000Z,63
2023-10-26T13:03:50.000Z,62
2023-10-26T13:04:54.000Z,59
2023-10-26T13:05:58.000Z,61
2023-10-26T13:07:02.000Z,65
2023-10-26T13:08:06.000Z,63
2023-10-26T13:09:10.000Z,60
2023-10-26T13:10:15.000Z,61
2023-10-26T13:11:22.000Z,69
2023-10-26T13:12:26.000Z,70
2023-10-26T13:13:31.000Z,73
2023-10-26T13:14:35.000Z,75
2023-10-26T13:15:40.000Z,74
2023-10-26T13:16:44.000Z,73
2023-10-26T13:17:48.000Z,73
2023-10-26T13:18:52.000Z,73
2023-10-26T13:19:56.000Z,73
2023-10-26T13:21:00.000Z,71
2023-10-26T13:22:05.000Z,64
2023-10-26T13:23:09.000Z,50
2023-10-26T13:24:20.000Z,39
2023-10-26T13:25:24.000Z,41
2023-10-26T13:26:29.000Z,43
2023-10-26T13:27:33.000Z,41
2023-10-26T13:28:37.000Z,40
2023-10-26T13:29:41.000Z,40
2023-10-26T13:30:45.000Z,39
2023-10-26T13:31:49.000Z,35
2023-10-26T13:32:53.000Z,28
2023-10-26T13:33:57.000Z,22
2023-10-26T13:35:02.000Z,21
2023-10-26T13:36:06.000Z,23
2023-10-26T13:37:10.000Z,27
2023-10-26T13:38:14.000Z,30
2023-10-26T13:39:18.000Z,33
2023-10-26T13:40:23.000Z,33
2023-10-26T13:41:27.000Z,29
2023-10-26T13:42:31.000Z,29
2023-10-26T13:43:35.000Z,28
2023-10-26T13:44:39.000Z,27
2023-10-26T13:45:43.000Z,26
2023-10-26T13:46:47.000Z,24
2023-10-26T13:47:52.000Z,20
2023-10-26T13:48:56.000Z,21
2023-10-26T13:50:00.000Z,22
2023-10-26T13:51:04.000Z,23
2023-10-26T13:52:08.000Z,22
2023-10-26T13:53:19.000Z,19
2023-10-26T13:54:24.000Z,16
2023-10-26T13:55:28.000Z,15
2023-10-26T13:56:32.000Z,16
2023-10-26T13:57:36.000Z,15
2023-10-26T13:58:40.000Z,14
2023-10-26T13:59:44.000Z,14
2023-10-26T14:00:48.000Z,15
2023-10-26T14:01:53.000Z,17
2023-10-26T14:02:57.000Z,18
2023-10-26T14:04:01.000Z,16
2023-10-26T14:05:05.000Z,17
2023-10-26T14:06:17.000Z,19
2023-10-26T14:07:21.000Z,19
2023-10-26T14:08:26.000Z,19
2023-10-26T14:09:30.000Z,18
2023-10-26T14:10:44.000Z,17
2023-10-26T14:11:48.000Z,16
2023-10-26T14:12:53.000Z,14
2023-10-26T14:13:57.000Z,14
2023-10-26T14:15:01.000Z,14
2023-10-26T14:16:05.000Z,15
2023-10-26T14:17:09.000Z,15
2023-10-26T14:18:13.000Z,14
2023-10-26T14:19:17.000Z,14
2023-10-26T14:20:21.000Z,14
2023-10-26T14:21:33.000Z,15
2023-10-26T14:22:37.000Z,16
2023-10-26T14:23:41.000Z,17
2023-10-26T14:24:45.000Z,17
2023-10-26T14:25:49.000Z,17
2023-10-26T14:26:54.000Z,18
2023-10-26T14:27:58.000Z,20
2023-10-26T14:29:12.000Z,21
2023-10-26T14:30:16.000Z,23
2023-10-26T14:31:20.000Z,26
2023-10-26T14:32:24.000Z,29
2023-10-26T14:33:28.000Z,34
2023-10-26T14:34:33.000Z,38
2023-10-26T14:35:37.000Z,38
2023-10-26T14:36:41.000Z,37
2023-10-26T14:37:45.000Z,36
2023-10-26T14:38:49.000Z,34
2023-10-26T14:39:53.000Z,30
2023-10-26T14:40:58.000Z,27
2023-10-26T14:42:05.000Z,23
2023-10-26T14:43:09.000Z,22
2023-10-26T14:44:13.000Z,22
2023-10-26T14:45:17.000Z,22
2023-10-26T14:46:22.000Z,21
2023-10-26T14:47:26.000Z,20
2023-10-26T14:48:30.000Z,19
2023-10-26T14:49:34.000Z,18
2023-10-26T14:50:38.000Z,17
2023-10-26T14:51:42.000Z,16
2023-10-26T14:52:46.000Z,15
2023-10-26T14:53:51.000Z,15
2023-10-26T14:54:55.000Z,15
2023-10-26T14:56:06.000Z,16
2023-10-26T14:57:10.000Z,17
2023-10-26T14:58:15.000Z,17
2023-10-26T14:59:19.000Z,17
2023-10-26T15:00:23.000Z,16
2023-10-26T15:01:34.000Z,16
2023-10-26T15:02:38.000Z,16
2023-10-26T15:03:42.000Z,15
2023-10-26T15:04:47.000Z,15
2023-10-26T15:05:51.000Z,16
2023-10-26T15:06:55.000Z,16
2023-10-26T15:07:59.000Z,17
2023-10-26T15:09:03.000Z,18
2023-10-26T15:10:08.000Z,18
2023-10-26T15:11:15.000Z,18
2023-10-26T15:12:21.000Z,17
2023-10-26T15:13:27.000Z,16
2023-10-26T15:14:35.000Z,14
2023-10-26T15:15:42.000Z,12
2023-10-26T15:16:46.000Z,11
2023-10-26T15:17:50.000Z,10
2023-10-26T15:18:54.000Z,10
2023-10-26T15:19:59.000Z,9
2023-10-26T15:21:03.000Z,8
2023-10-26T15:22:07.000Z,8
2023-10-26T15:23:11.000Z,8
2023-10-26T15:24:15.000Z,8
2023-10-26T15:25:19.000Z,7
2023-10-26T15:26:27.000Z,7
2023-10-26T15:27:31.000Z,7
2023-10-26T15:28:35.000Z,6
2023-10-26T15:29:39.000Z,6
2023-10-26T15:30:43.000Z,5
2023-10-26T15:31:47.000Z,5
2023-10-26T15:32:52.000Z,5